Temp: 15.3°C   Baro: 1011.5mb
  Wind: 6.9mph   Dir: W (268°)
  Rain: 2.0mm (0.0mm/hr)
  Solar: 297W/m2  Hum: 73%
 
Bath Spa Weather Station Historical Data
Daily Summary for November 25, 2019 Units:  Metric    English   Both
Daily Weekly Monthly Yearly Custom
  High: Low: Average:
Temperature: 13.1 °C 10 °C 11.3 °C
Dew Point: 11.8 °C 8.5 °C 10.1 °C
Humidity: 96% 88% 92%
Wind Speed: 23km/h 0km/h 5.3km/h
Wind Gust: 49.9km/h - -
Wind- - SSE
Pressure: 1000.9 hPa 998.5 hPa -
Precipitation: 3.56 mm    
Historical Graphs
 
 
Tabular Data for November 25, 2019
Time Temperature Dew Point Pressure Wind Wind Speed Wind Gust Humidity Rainfall Rate (Hourly) solar
00:04 10.4 °C 8.8 °C 1000.9 hPa SE 6 km/h 16.1 km/h 90% 0 mm 0 W/m2
00:09 10.4 °C 8.8 °C 1000.6 hPa SE 6.4 km/h 12.9 km/h 90% 0 mm 0 W/m2
00:14 10.3 °C 8.7 °C 1000.6 hPa SE 7.9 km/h 14.5 km/h 90% 0 mm 0 W/m2
00:19 10.3 °C 8.7 °C 1000.6 hPa SE 6.4 km/h 12.9 km/h 90% 0 mm 0 W/m2
00:24 10.3 °C 8.7 °C 1000.6 hPa SE 5.5 km/h 14.5 km/h 89.8% 0 mm 0 W/m2
00:29 10.3 °C 8.6 °C 1000.6 hPa ESE 6.4 km/h 14.5 km/h 89% 0 mm 0 W/m2
00:34 10.3 °C 8.6 °C 1000.6 hPa SE 6.1 km/h 14.5 km/h 89% 0 mm 0 W/m2
00:39 10.3 °C 8.6 °C 1000.6 hPa ESE 5.8 km/h 11.3 km/h 89.2% 0 mm 0 W/m2
00:44 10.2 °C 8.6 °C 1000.6 hPa SE 6 km/h 9.7 km/h 89.5% 0 mm 0 W/m2
00:49 10.2 °C 8.6 °C 1000.6 hPa SE 6.4 km/h 12.9 km/h 90% 0 mm 0 W/m2
00:54 10.2 °C 8.6 °C 1000.6 hPa SE 8 km/h 14.5 km/h 89.8% 0 mm 0 W/m2
00:59 10.2 °C 8.5 °C 1000.2 hPa SE 6.4 km/h 14.5 km/h 89.2% 0 mm 0 W/m2
01:04 10.2 °C 8.6 °C 1000.2 hPa ESE 3.2 km/h 14.5 km/h 89.8% 0 mm 0 W/m2
01:09 10.2 °C 8.6 °C 1000.2 hPa ESE 6.4 km/h 14.5 km/h 90% 0 mm 0 W/m2
01:14 10.2 °C 8.6 °C 1000.2 hPa ESE 5.6 km/h 14.5 km/h 90% 0 mm 0 W/m2
01:19 10.2 °C 8.6 °C 1000.2 hPa SE 3.7 km/h 12.9 km/h 90% 0 mm 0 W/m2
01:24 10.2 °C 8.6 °C 1000.2 hPa SE 6.8 km/h 16.1 km/h 90% 0 mm 0 W/m2
01:29 10.2 °C 8.6 °C 999.9 hPa ESE 11.9 km/h 17.7 km/h 90% 0 mm 0 W/m2
01:34 10.2 °C 8.6 °C 999.9 hPa ESE 5.1 km/h 11.3 km/h 90% 0 mm 0 W/m2
01:39 10.2 °C 8.6 °C 999.9 hPa SE 5.1 km/h 19.3 km/h 90% 0 mm 0 W/m2
01:44 10.2 °C 8.6 °C 999.9 hPa ESE 6.4 km/h 17.7 km/h 90% 0 mm 0 W/m2
01:49 10.2 °C 8.6 °C 999.9 hPa SE 4.5 km/h 9.7 km/h 90% 0 mm 0 W/m2
01:54 10.2 °C 8.7 °C 999.9 hPa SE 8 km/h 14.5 km/h 90% 0 mm 0 W/m2
01:59 10.3 °C 8.7 °C 999.9 hPa ESE 5.3 km/h 14.5 km/h 90% 0 mm 0 W/m2
02:04 10.3 °C 8.7 °C 999.9 hPa SE 7.4 km/h 16.1 km/h 90% 0 mm 0 W/m2
02:09 10.3 °C 8.7 °C 999.9 hPa East 7.7 km/h 14.5 km/h 90% 0 mm 0 W/m2
02:14 10.3 °C 8.7 °C 999.9 hPa ESE 10.3 km/h 19.3 km/h 90% 0 mm 0 W/m2
02:19 10.3 °C 8.7 °C 999.9 hPa ESE 7.6 km/h 14.5 km/h 90% 0 mm 0 W/m2
02:24 10.3 °C 8.7 °C 999.9 hPa ESE 8.5 km/h 16.1 km/h 90% 0 mm 0 W/m2
02:29 10.3 °C 8.7 °C 999.9 hPa ESE 7.6 km/h 17.7 km/h 90% 0 mm 0 W/m2
02:34 10.4 °C 8.8 °C 999.5 hPa ESE 9.7 km/h 19.3 km/h 90% 0 mm 0 W/m2
02:39 10.4 °C 8.8 °C 999.5 hPa ESE 14.5 km/h 20.9 km/h 90% 0 mm 0 W/m2
02:44 10.4 °C 8.8 °C 999.5 hPa ESE 8.5 km/h 20.9 km/h 90% 0 mm 0 W/m2
02:49 10.4 °C 8.8 °C 999.5 hPa ESE 6 km/h 14.5 km/h 90% 0 mm 0 W/m2
02:54 10.4 °C 8.8 °C 999.5 hPa SE 10.8 km/h 20.9 km/h 90% 0 mm 0 W/m2
02:59 10.3 °C 8.8 °C 999.5 hPa SE 8.7 km/h 16.1 km/h 90% 0 mm 0 W/m2
03:04 10.3 °C 8.7 °C 999.5 hPa SE 10.3 km/h 17.7 km/h 90% 0 mm 0 W/m2
03:09 10.3 °C 8.7 °C 999.5 hPa SE 5.8 km/h 17.7 km/h 90% 0 mm 0 W/m2
03:14 10.2 °C 8.7 °C 999.5 hPa SE 5.1 km/h 16.1 km/h 90.6% 0 mm 0 W/m2
03:19 10.1 °C 8.7 °C 999.5 hPa SE 8.9 km/h 17.7 km/h 90.8% 0 mm 0 W/m2
03:24 10.1 °C 8.7 °C 999.5 hPa SE 8.4 km/h 17.7 km/h 91% 0.25 mm 0 W/m2
03:29 10.1 °C 8.8 °C 999.2 hPa SE 6.6 km/h 16.1 km/h 91.6% 0.25 mm 0 W/m2
03:34 10 °C 8.8 °C 999.2 hPa SE 8.2 km/h 19.3 km/h 92% 0.25 mm 0 W/m2
03:39 10 °C 8.8 °C 999.2 hPa ESE 6.6 km/h 19.3 km/h 92% 0.25 mm 0 W/m2
03:44 10 °C 8.8 °C 999.2 hPa SE 12.9 km/h 20.9 km/h 92% 0.51 mm 0 W/m2
03:49 10.1 °C 8.9 °C 999.2 hPa SE 15.8 km/h 24.1 km/h 92.6% 0.51 mm 0 W/m2
03:54 10.1 °C 9 °C 999.2 hPa ESE 6.8 km/h 24.1 km/h 93% 0.51 mm 0 W/m2
03:59 10.1 °C 9 °C 999.2 hPa SE 9.5 km/h 22.5 km/h 93% 0.51 mm 0 W/m2
04:04 10.1 °C 9 °C 999.2 hPa SE 6.8 km/h 17.7 km/h 93% 0.51 mm 0 W/m2
04:09 10.1 °C 9 °C 999.2 hPa SE 7.7 km/h 20.9 km/h 93% 0.51 mm 0 W/m2
04:14 10.2 °C 9.1 °C 999.2 hPa SE 7.7 km/h 17.7 km/h 93% 0.51 mm 0 W/m2
04:19 10.2 °C 9.1 °C 998.9 hPa SE 13 km/h 20.9 km/h 93% 0.51 mm 0 W/m2
04:24 10.2 °C 9.1 °C 998.9 hPa SE 7.7 km/h 20.9 km/h 93% 0.25 mm 0 W/m2
04:29 10.2 °C 9.1 °C 998.9 hPa ESE 7.6 km/h 19.3 km/h 93% 0.25 mm 0 W/m2
04:33 10.2 °C 9.1 °C 998.9 hPa ESE 5.6 km/h 14.5 km/h 93% 0.25 mm 0 W/m2
04:39 10.2 °C 9.2 °C 998.9 hPa ESE 10 km/h 17.7 km/h 93.2% 0.25 mm 0 W/m2
04:44 10.3 °C 9.2 °C 998.9 hPa SE 9.3 km/h 17.7 km/h 93% 0.25 mm 0 W/m2
04:49 10.3 °C 9.2 °C 998.9 hPa SE 5.8 km/h 14.5 km/h 93% 0 mm 0 W/m2
04:54 10.3 °C 9.4 °C 998.9 hPa ESE 9.3 km/h 19.3 km/h 94% 0 mm 0 W/m2
04:59 10.3 °C 9.4 °C 998.9 hPa ESE 9 km/h 22.5 km/h 94% 0 mm 0 W/m2
05:04 10.3 °C 9.4 °C 998.9 hPa SE 9 km/h 17.7 km/h 94% 0 mm 0 W/m2
05:08 10.4 °C 9.5 °C 998.5 hPa ESE 7.2 km/h 19.3 km/h 94% 0 mm 0 W/m2
05:14 10.4 °C 9.5 °C 998.5 hPa ESE 13.5 km/h 20.9 km/h 94% 0 mm 0 W/m2
05:19 10.4 °C 9.5 °C 998.9 hPa ESE 6.6 km/h 17.7 km/h 94% 0 mm 0 W/m2
05:24 10.4 °C 9.6 °C 998.9 hPa SE 7.9 km/h 19.3 km/h 94% 0 mm 0 W/m2
05:29 10.5 °C 9.6 °C 998.5 hPa SE 9 km/h 17.7 km/h 94% 0 mm 0 W/m2
05:34 10.5 °C 9.6 °C 998.5 hPa ESE 6.3 km/h 17.7 km/h 94% 0 mm 0 W/m2
05:39 10.5 °C 9.6 °C 998.5 hPa SE 7.2 km/h 16.1 km/h 94% 0.51 mm 0 W/m2
05:43 10.6 °C 9.6 °C 998.5 hPa SE 5.6 km/h 14.5 km/h 94% 0.51 mm 0 W/m2
05:49 10.5 °C 9.6 °C 998.5 hPa SE 9.7 km/h 16.1 km/h 94% 0.51 mm 0 W/m2
05:54 10.5 °C 9.6 °C 998.5 hPa ESE 7.1 km/h 16.1 km/h 94% 0.51 mm 0 W/m2
05:59 10.6 °C 9.7 °C 998.5 hPa ESE 9.7 km/h 16.1 km/h 94% 0.51 mm 0 W/m2
06:04 10.6 °C 9.7 °C 998.5 hPa SE 6.4 km/h 16.1 km/h 94% 0.51 mm 0 W/m2
06:09 10.6 °C 9.7 °C 998.5 hPa SE 9.2 km/h 16.1 km/h 94% 0.51 mm 0 W/m2
06:14 10.6 °C 9.8 °C 998.5 hPa SE 11.6 km/h 17.7 km/h 94.8% 0.51 mm 0 W/m2
06:19 10.6 °C 9.8 °C 998.5 hPa ESE 8 km/h 17.7 km/h 95% 0.51 mm 0 W/m2
06:24 10.7 °C 9.8 °C 998.5 hPa ESE 8 km/h 19.3 km/h 95% 0.51 mm 0 W/m2
06:29 10.7 °C 9.8 °C 998.9 hPa ESE 6.6 km/h 17.7 km/h 95% 0.51 mm 0 W/m2
06:34 10.7 °C 9.8 °C 998.9 hPa ESE 5.5 km/h 17.7 km/h 95% 0.51 mm 0 W/m2
06:39 10.7 °C 9.9 °C 998.9 hPa ESE 8.4 km/h 16.1 km/h 95% 0.25 mm 0 W/m2
06:44 10.7 °C 9.9 °C 998.9 hPa ESE 7.1 km/h 16.1 km/h 95% 0.25 mm 0 W/m2
06:49 10.7 °C 9.9 °C 998.9 hPa ESE 11.3 km/h 19.3 km/h 95% 0.25 mm 0 W/m2
06:54 10.7 °C 9.9 °C 998.9 hPa ESE 6.9 km/h 19.3 km/h 95% 0.25 mm 0 W/m2
06:59 10.7 °C 9.9 °C 998.9 hPa SE 8.2 km/h 19.3 km/h 95% 0.25 mm 0 W/m2
07:04 10.7 °C 9.9 °C 998.9 hPa ESE 7.1 km/h 12.9 km/h 95% 0.25 mm 0 W/m2
07:09 10.8 °C 10 °C 998.9 hPa East 10.1 km/h 16.1 km/h 95% 0.25 mm 0 W/m2
07:14 10.8 °C 10 °C 998.9 hPa SE 4.8 km/h 16.1 km/h 95% 0.25 mm 0 W/m2
07:19 10.8 °C 10 °C 998.9 hPa ESE 4.2 km/h 12.9 km/h 95% 0.25 mm 0 W/m2
07:24 10.8 °C 10 °C 998.9 hPa SE 3.9 km/h 11.3 km/h 95% 0.25 mm 0 W/m2
07:29 10.8 °C 10.1 °C 998.9 hPa SE 7.4 km/h 14.5 km/h 95% 0.25 mm 0 W/m2
07:34 10.9 °C 10.1 °C 998.9 hPa SE 6.4 km/h 11.3 km/h 95% 0.51 mm 0 W/m2
07:39 10.9 °C 10.1 °C 998.9 hPa SE 11.3 km/h 17.7 km/h 95% 0.51 mm 0 W/m2
07:44 10.9 °C 10.2 °C 998.9 hPa SE 20.3 km/h 49.9 km/h 95% 0.51 mm 5 W/m2
07:49 10.9 °C 10.2 °C 998.9 hPa ESE 14.2 km/h 49.9 km/h 95% 0.51 mm 5 W/m2
07:54 11 °C 10.2 °C 998.9 hPa SE 23 km/h 45.1 km/h 95% 0.51 mm 0 W/m2
07:59 11.1 °C 10.3 °C 998.9 hPa SE 6.9 km/h 37 km/h 95% 0.51 mm 0 W/m2
08:04 11.1 °C 10.4 °C 999.2 hPa SE 4.5 km/h 11.3 km/h 95.4% 0.51 mm 0 W/m2
08:09 11.1 °C 10.5 °C 999.2 hPa SE 5.3 km/h 12.9 km/h 96% 0.76 mm 0 W/m2
08:14 11.1 °C 10.5 °C 999.2 hPa SE 5.5 km/h 12.9 km/h 96% 1.02 mm 5 W/m2
08:18 11.2 °C 10.6 °C 999.2 hPa ESE 6.3 km/h 11.3 km/h 96% 1.02 mm 7 W/m2
08:24 11.2 °C 10.6 °C 998.9 hPa ESE 6.1 km/h 16.1 km/h 96% 1.27 mm 12 W/m2
08:29 11.2 °C 10.6 °C 998.9 hPa ESE 5.5 km/h 16.1 km/h 96% 1.52 mm 18 W/m2
08:34 11.2 °C 10.6 °C 999.2 hPa ESE 6 km/h 14.5 km/h 96% 1.52 mm 26 W/m2
08:39 11.2 °C 10.6 °C 999.2 hPa ESE 4.3 km/h 14.5 km/h 96% 1.27 mm 33 W/m2
08:44 11.2 °C 10.6 °C 999.2 hPa SE 7.2 km/h 16.1 km/h 96% 1.02 mm 32 W/m2
08:49 11.3 °C 10.7 °C 999.2 hPa ESE 11.3 km/h 17.7 km/h 96% 1.02 mm 30 W/m2
08:54 11.3 °C 10.7 °C 999.2 hPa ESE 5.8 km/h 17.7 km/h 96% 1.02 mm 26 W/m2
08:59 11.3 °C 10.7 °C 999.2 hPa SE 6.4 km/h 16.1 km/h 96% 1.02 mm 28 W/m2
09:04 11.3 °C 10.7 °C 999.2 hPa SE 4.8 km/h 16.1 km/h 96% 1.02 mm 30 W/m2
09:09 11.3 °C 10.7 °C 999.2 hPa ESE 7.4 km/h 17.7 km/h 96% 1.02 mm 30 W/m2
09:14 11.3 °C 10.7 °C 999.2 hPa ESE 6.9 km/h 11.3 km/h 96% 0.76 mm 28 W/m2
09:19 11.3 °C 10.7 °C 999.2 hPa SE 4.5 km/h 14.5 km/h 96% 0.51 mm 28 W/m2
09:24 11.3 °C 10.7 °C 999.2 hPa SE 6 km/h 14.5 km/h 96% 0.51 mm 32 W/m2
09:29 11.4 °C 10.8 °C 999.2 hPa SE 4.5 km/h 14.5 km/h 96% 0.51 mm 30 W/m2
09:34 11.4 °C 10.8 °C 999.2 hPa SE 6.4 km/h 12.9 km/h 96% 0.25 mm 35 W/m2
09:39 11.4 °C 10.8 °C 999.2 hPa SE 8.9 km/h 12.9 km/h 96% 0.25 mm 39 W/m2
09:44 11.4 °C 10.8 °C 999.2 hPa SE 6.8 km/h 12.9 km/h 96% 0.25 mm 40 W/m2
09:49 11.4 °C 10.8 °C 999.2 hPa SE 6.3 km/h 11.3 km/h 96% 0.25 mm 42 W/m2
09:54 11.5 °C 10.9 °C 999.2 hPa SE 3.4 km/h 12.9 km/h 96% 0.25 mm 40 W/m2
09:59 11.5 °C 10.9 °C 999.5 hPa SE 6 km/h 12.9 km/h 96% 0.25 mm 32 W/m2
10:04 11.5 °C 10.9 °C 999.5 hPa SE 8.4 km/h 17.7 km/h 96% 0 mm 40 W/m2
10:09 11.6 °C 11 °C 999.5 hPa SSE 6.6 km/h 14.5 km/h 96% 0 mm 54 W/m2
10:14 11.7 °C 11 °C 999.5 hPa SE 1.9 km/h 9.7 km/h 96% 0 mm 104 W/m2
10:19 11.7 °C 11.1 °C 999.5 hPa SE 4.7 km/h 9.7 km/h 96% 0 mm 118 W/m2
10:24 11.7 °C 11.2 °C 999.5 hPa SSE 2.3 km/h 6.4 km/h 96% 0 mm 127 W/m2
10:29 11.8 °C 11.2 °C 999.5 hPa SSE 5.8 km/h 19.3 km/h 96% 0 mm 135 W/m2
10:34 11.8 °C 11.2 °C 999.5 hPa SSE 2.6 km/h 19.3 km/h 96% 0 mm 142 W/m2
10:39 11.9 °C 11.3 °C 999.5 hPa SSE 3.4 km/h 14.5 km/h 96% 0 mm 160 W/m2
10:44 12 °C 11.4 °C 999.5 hPa SSE 14.2 km/h 22.5 km/h 96% 0 mm 146 W/m2
10:49 12.1 °C 11.4 °C 999.5 hPa South 2.4 km/h 20.9 km/h 96% 0 mm 134 W/m2
10:54 12.1 °C 11.4 °C 999.5 hPa South 8.7 km/h 17.7 km/h 96% 0 mm 153 W/m2
10:59 12.2 °C 11.4 °C 999.5 hPa Calm   14.5 km/h 95.2% 0 mm 156 W/m2
11:04 12.2 °C 11.4 °C 999.5 hPa South 3.9 km/h 14.5 km/h 95.2% 0 mm 155 W/m2
11:09 12.2 °C 11.4 °C 999.5 hPa South 3.1 km/h 11.3 km/h 95% 0 mm 148 W/m2
11:14 12.3 °C 11.5 °C 999.5 hPa South 7.6 km/h 12.9 km/h 95% 0 mm 135 W/m2
11:19 12.3 °C 11.5 °C 999.5 hPa South 4.8 km/h 16.1 km/h 95% 0 mm 120 W/m2
11:24 12.3 °C 11.6 °C 999.5 hPa SW 1.3 km/h 11.3 km/h 95% 0 mm 118 W/m2
11:29 12.4 °C 11.6 °C 999.5 hPa SSW 1.9 km/h 16.1 km/h 95% 0 mm 156 W/m2
11:34 12.5 °C 11.7 °C 999.5 hPa SSW 3.2 km/h 12.9 km/h 95% 0 mm 128 W/m2
11:39 12.6 °C 11.7 °C 999.5 hPa South 7.1 km/h 14.5 km/h 94.8% 0 mm 77 W/m2
11:44 12.6 °C 11.7 °C 999.5 hPa South 4.2 km/h 9.7 km/h 94% 0 mm 93 W/m2
11:49 12.7 °C 11.8 °C 999.5 hPa South 1.9 km/h 6.4 km/h 94% 0 mm 98 W/m2
11:54 12.7 °C 11.8 °C 999.5 hPa SSW 5.1 km/h 11.3 km/h 94% 0 mm 86 W/m2
11:59 12.7 °C 11.6 °C 999.5 hPa SSW 4.8 km/h 12.9 km/h 93% 0 mm 127 W/m2
12:04 12.8 °C 11.6 °C 999.5 hPa SW 3.9 km/h 12.9 km/h 92.6% 0 mm 105 W/m2
12:09 12.8 °C 11.5 °C 999.2 hPa SSW 6 km/h 12.9 km/h 92% 0 mm 114 W/m2
12:14 12.9 °C 11.5 °C 999.2 hPa South 3.4 km/h 12.9 km/h 91.2% 0 mm 134 W/m2
12:19 12.9 °C 11.5 °C 999.2 hPa South 0.3 km/h 8 km/h 91% 0 mm 84 W/m2
12:24 12.9 °C 11.5 °C 999.2 hPa South 4.2 km/h 12.9 km/h 90.6% 0 mm 58 W/m2
12:29 12.9 °C 11.3 °C 999.5 hPa SSW 0.6 km/h 9.7 km/h 90% 0 mm 62 W/m2
12:34 13 °C 11.4 °C 999.5 hPa SSW 1 km/h 6.4 km/h 90% 0 mm 86 W/m2
12:38 12.9 °C 11.3 °C 999.5 hPa SSW 4.7 km/h 11.3 km/h 89.8% 0 mm 88 W/m2
12:44 13 °C 11.2 °C 999.5 hPa SSW 2.1 km/h 9.7 km/h 89% 0 mm 95 W/m2
12:49 13.1 °C 11.2 °C 999.5 hPa SSW 5.8 km/h 11.3 km/h 89% 0 mm 100 W/m2
12:54 13.1 °C 11.2 °C 999.5 hPa SSW 3.1 km/h 9.7 km/h 88.2% 0 mm 100 W/m2
12:59 13.1 °C 11.2 °C 999.5 hPa SSW 2.1 km/h 9.7 km/h 88% 0 mm 84 W/m2
13:04 13.1 °C 11.2 °C 999.5 hPa SSW 2.7 km/h 9.7 km/h 88% 0 mm 51 W/m2
13:09 13 °C 11.1 °C 999.5 hPa SSW 7.4 km/h 17.7 km/h 88% 0 mm 63 W/m2
13:14 12.9 °C 11 °C 999.5 hPa South 5.6 km/h 9.7 km/h 88% 0 mm 60 W/m2
13:19 12.9 °C 11 °C 999.5 hPa SSW 4.2 km/h 14.5 km/h 88% 0 mm 76 W/m2
13:24 12.9 °C 11 °C 999.5 hPa SSW 1.9 km/h 11.3 km/h 88% 0 mm 69 W/m2
13:29 12.9 °C 11 °C 999.5 hPa SSW 3.4 km/h 8 km/h 88% 0 mm 69 W/m2
13:34 12.8 °C 10.9 °C 999.5 hPa South 4 km/h 12.9 km/h 88% 0 mm 79 W/m2
13:39 12.9 °C 11 °C 999.5 hPa South 2.6 km/h 6.4 km/h 88% 0 mm 88 W/m2
13:44 12.9 °C 11 °C 999.5 hPa SW 8.5 km/h 16.1 km/h 88% 0 mm 83 W/m2
13:49 12.9 °C 11 °C 999.2 hPa SW 6 km/h 16.1 km/h 88% 0 mm 81 W/m2
13:54 12.9 °C 11 °C 999.2 hPa SW 2.7 km/h 9.7 km/h 88% 0 mm 88 W/m2
13:59 12.9 °C 11 °C 999.2 hPa SW 5.3 km/h 9.7 km/h 88% 0 mm 104 W/m2
14:04 12.9 °C 11 °C 999.2 hPa SSW 4 km/h 11.3 km/h 88% 0 mm 98 W/m2
14:09 12.9 °C 11.1 °C 999.2 hPa SSW 0.6 km/h 6.4 km/h 88.4% 0 mm 42 W/m2
14:14 12.9 °C 11.1 °C 999.2 hPa SSW 2.9 km/h 11.3 km/h 89% 0 mm 42 W/m2
14:19 12.9 °C 11.1 °C 999.2 hPa South 4.3 km/h 11.3 km/h 89% 0 mm 40 W/m2
14:24 12.9 °C 11.1 °C 999.2 hPa South 7.1 km/h 12.9 km/h 89% 0 mm 30 W/m2
14:29 12.9 °C 11.1 °C 999.2 hPa South 3.7 km/h 11.3 km/h 89% 0 mm 25 W/m2
14:34 12.8 °C 11 °C 999.2 hPa South 1.3 km/h 11.3 km/h 89% 0 mm 30 W/m2
14:39 12.8 °C 11 °C 999.2 hPa South 1.6 km/h 11.3 km/h 89% 0 mm 47 W/m2
14:44 12.8 °C 11 °C 999.2 hPa South 1.4 km/h 6.4 km/h 89% 0 mm 47 W/m2
14:49 12.8 °C 11.1 °C 999.2 hPa SSE 1 km/h 11.3 km/h 89.4% 0 mm 49 W/m2
14:54 12.8 °C 11.2 °C 999.2 hPa SSE 1.9 km/h 8 km/h 90% 0 mm 35 W/m2
14:59 12.7 °C 11.1 °C 999.5 hPa Calm   8 km/h 90% 0 mm 28 W/m2
15:04 12.7 °C 11.1 °C 999.5 hPa SSE 2.6 km/h 6.4 km/h 90% 0.25 mm 19 W/m2
15:08 12.6 °C 11.1 °C 999.5 hPa SSE 1.1 km/h 4.8 km/h 90.3% 0.25 mm 18 W/m2
15:14 12.4 °C 11.1 °C 999.5 hPa SSE 4.8 km/h 8 km/h 91% 0.25 mm 14 W/m2
15:19 12.4 °C 11 °C 999.2 hPa SSE 3.9 km/h 9.7 km/h 91% 0.25 mm 12 W/m2
15:24 12.4 °C 11.1 °C 999.2 hPa SSE 1.9 km/h 9.7 km/h 91.6% 0.25 mm 11 W/m2
15:29 12.4 °C 11.1 °C 999.2 hPa South 2.1 km/h 9.7 km/h 92% 0.25 mm 7 W/m2
15:34 12.4 °C 11.1 °C 999.2 hPa South 6.4 km/h 12.9 km/h 92% 0.25 mm 5 W/m2
15:39 12.4 °C 11.1 °C 999.2 hPa South 4.8 km/h 9.7 km/h 92% 0.25 mm 5 W/m2
15:44 12.4 °C 11.1 °C 999.5 hPa SSW 3.5 km/h 9.7 km/h 92% 0.25 mm 5 W/m2
15:49 12.4 °C 11.1 °C 999.5 hPa SSW 3.9 km/h 9.7 km/h 92% 0.51 mm 5 W/m2
15:54 12.3 °C 11.1 °C 999.5 hPa SSW 1 km/h 8 km/h 92% 0.51 mm 5 W/m2
15:59 12.3 °C 11 °C 999.5 hPa SSW 3.5 km/h 9.7 km/h 92% 0.51 mm 0 W/m2
16:04 12.3 °C 11 °C 999.5 hPa SSW 2.1 km/h 9.7 km/h 92% 0.51 mm 0 W/m2
16:09 12.3 °C 11 °C 999.5 hPa SSW 1.1 km/h 8 km/h 92% 0.51 mm 0 W/m2
16:14 12.3 °C 11 °C 999.5 hPa SSW 2.6 km/h 8 km/h 92% 0.51 mm 0 W/m2
16:19 12.3 °C 10.9 °C 999.5 hPa SSW 2.4 km/h 8 km/h 92% 0.51 mm 0 W/m2
16:24 12.2 °C 10.9 °C 999.5 hPa SSW 2.3 km/h 8 km/h 92% 0.51 mm 0 W/m2
16:29 12.2 °C 10.9 °C 999.5 hPa SSW 2.1 km/h 6.4 km/h 92% 0.51 mm 0 W/m2
16:34 12.2 °C 10.9 °C 999.5 hPa SSW 0.3 km/h 4.8 km/h 92% 0.51 mm 0 W/m2
16:39 12.2 °C 10.9 °C 999.5 hPa SSW 0.8 km/h 6.4 km/h 92% 0.51 mm 0 W/m2
16:44 12.2 °C 10.9 °C 999.5 hPa Calm   1.6 km/h 92% 0.51 mm 0 W/m2
16:49 12.2 °C 10.9 °C 999.5 hPa Calm     92% 0.51 mm 0 W/m2
16:54 12.2 °C 10.8 °C 999.9 hPa SSW 2.6 km/h 8 km/h 92% 0.25 mm 0 W/m2
16:59 12.1 °C 10.7 °C 999.9 hPa SSW 3.4 km/h 9.7 km/h 92% 0.25 mm 0 W/m2
17:03 12 °C 10.7 °C 999.9 hPa SSW 3.5 km/h 8 km/h 92% 0.25 mm 0 W/m2
17:09 12 °C 10.7 °C 999.9 hPa SSW 3.9 km/h 9.7 km/h 92% 0.25 mm 0 W/m2
17:14 12 °C 10.7 °C 999.9 hPa SSW 2.3 km/h 9.7 km/h 92% 0.25 mm 0 W/m2
17:19 12 °C 10.7 °C 999.9 hPa SSW 1.3 km/h 9.7 km/h 92% 0.25 mm 0 W/m2
17:24 11.9 °C 10.6 °C 999.9 hPa SSW 3.2 km/h 9.7 km/h 92% 0.25 mm 0 W/m2
17:29 12 °C 10.7 °C 999.9 hPa SSW 2.1 km/h 8 km/h 92% 0.25 mm 0 W/m2
17:34 12 °C 10.7 °C 999.9 hPa SSW 1.3 km/h 6.4 km/h 92% 0.25 mm 0 W/m2
17:39 11.9 °C 10.7 °C 999.9 hPa SSW 8.7 km/h 14.5 km/h 92% 0.25 mm 0 W/m2
17:43 11.9 °C 10.6 °C 999.9 hPa South 4.3 km/h 14.5 km/h 92% 0.25 mm 0 W/m2
17:49 11.9 °C 10.6 °C 999.9 hPa SSW 5.3 km/h 12.9 km/h 92% 0.25 mm 0 W/m2
17:54 11.9 °C 10.6 °C 999.9 hPa SW 4.8 km/h 12.9 km/h 92% 0.25 mm 0 W/m2
17:59 11.9 °C 10.6 °C 999.5 hPa SW 2.7 km/h 12.9 km/h 92% 0 mm 0 W/m2
18:04 11.9 °C 10.6 °C 999.5 hPa SSW 4.7 km/h 11.3 km/h 92% 0 mm 0 W/m2
18:09 11.9 °C 10.6 °C 999.5 hPa SSW 2.4 km/h 8 km/h 92% 0 mm 0 W/m2
18:14 11.8 °C 10.6 °C 999.5 hPa SSW 3.5 km/h 6.4 km/h 92% 0 mm 0 W/m2
18:19 11.8 °C 10.5 °C 999.5 hPa SSW 4.8 km/h 8 km/h 92% 0 mm 0 W/m2
18:24 11.8 °C 10.5 °C 999.5 hPa SSW 3.2 km/h 9.7 km/h 92% 0 mm 0 W/m2
18:29 11.8 °C 10.5 °C 999.5 hPa SSW 1.9 km/h 9.7 km/h 92% 0 mm 0 W/m2
18:34 11.8 °C 10.5 °C 999.5 hPa SSW 0.3 km/h 4.8 km/h 92% 0 mm 0 W/m2
18:39 11.7 °C 10.4 °C 999.5 hPa SSW 1 km/h 4.8 km/h 92% 0 mm 0 W/m2
18:44 11.7 °C 10.4 °C 999.9 hPa SSW 2.1 km/h 4.8 km/h 92% 0 mm 0 W/m2
18:49 11.7 °C 10.3 °C 999.9 hPa SSW 0.3 km/h 4.8 km/h 92% 0 mm 0 W/m2
18:54 11.6 °C 10.3 °C 999.5 hPa Calm   3.2 km/h 92% 0 mm 0 W/m2
18:59 11.4 °C 10.2 °C 999.5 hPa SSW 1.3 km/h 3.2 km/h 92% 0 mm 0 W/m2
19:04 11.3 °C 10 °C 999.9 hPa Calm   4.8 km/h 92% 0 mm 0 W/m2
19:08 11.3 °C 10 °C 999.5 hPa Calm   3.2 km/h 92% 0 mm 0 W/m2
19:14 11.2 °C 9.9 °C 999.5 hPa SSW 0.6 km/h 4.8 km/h 92% 0 mm 0 W/m2
19:19 11.2 °C 9.9 °C 999.9 hPa SSW 1.3 km/h 6.4 km/h 92% 0 mm 0 W/m2
19:24 11.2 °C 10.1 °C 999.5 hPa SSW 1.3 km/h 4.8 km/h 93% 0 mm 0 W/m2
19:29 11.2 °C 10.1 °C 999.5 hPa SSW 1.6 km/h 4.8 km/h 93% 0 mm 0 W/m2
19:34 11.2 °C 10.1 °C 999.5 hPa SSW 0.6 km/h 4.8 km/h 93% 0 mm 0 W/m2
19:39 11.2 °C 10.1 °C 999.9 hPa SSW 1.3 km/h 4.8 km/h 93% 0 mm 0 W/m2
19:44 11.2 °C 10.1 °C 999.9 hPa SSW 1.9 km/h 8 km/h 93% 0 mm 0 W/m2
19:49 11.2 °C 10.1 °C 999.9 hPa SSW 2.6 km/h 8 km/h 93% 0 mm 0 W/m2
19:54 11.2 °C 10.1 °C 999.9 hPa SSW 0.8 km/h 9.7 km/h 93% 0 mm 0 W/m2
19:59 11.2 °C 10.1 °C 999.9 hPa SSW 4.3 km/h 9.7 km/h 93% 0 mm 0 W/m2
20:04 11.2 °C 10.1 °C 999.9 hPa SSW 4.7 km/h 11.3 km/h 93% 0 mm 0 W/m2
20:09 11.2 °C 10.1 °C 999.9 hPa SSW 5.3 km/h 11.3 km/h 93% 0 mm 0 W/m2
20:14 11.2 °C 10.1 °C 999.9 hPa SSW 6.4 km/h 11.3 km/h 93% 0 mm 0 W/m2
20:19 11.2 °C 10.1 °C 999.9 hPa SSW 9.2 km/h 16.1 km/h 93% 0 mm 0 W/m2
20:24 11.2 °C 10.1 °C 999.9 hPa SSW 3.9 km/h 11.3 km/h 93% 0 mm 0 W/m2
20:29 11.2 °C 10.1 °C 999.9 hPa SSW 5.1 km/h 12.9 km/h 93% 0 mm 0 W/m2
20:34 11.2 °C 10.1 °C 999.9 hPa SSW 3.4 km/h 8 km/h 93% 0 mm 0 W/m2
20:39 11.2 °C 10.1 °C 999.9 hPa SSW 4.2 km/h 11.3 km/h 93% 0 mm 0 W/m2
20:44 11.2 °C 10.1 °C 999.9 hPa SSW 1 km/h 11.3 km/h 93% 0 mm 0 W/m2
20:49 11.2 °C 10.1 °C 999.9 hPa SW 5.6 km/h 11.3 km/h 93% 0 mm 0 W/m2
20:54 11.1 °C 10 °C 999.9 hPa SW 7.6 km/h 16.1 km/h 93% 0 mm 0 W/m2
20:59 11.1 °C 10 °C 999.9 hPa SSW 4.2 km/h 11.3 km/h 93% 0 mm 0 W/m2
21:04 11.1 °C 10 °C 999.9 hPa SW 6.3 km/h 11.3 km/h 93% 0 mm 0 W/m2
21:09 11.1 °C 10 °C 999.9 hPa SSW 5.1 km/h 11.3 km/h 93% 0 mm 0 W/m2
21:14 11.1 °C 10 °C 999.9 hPa SSW 8 km/h 14.5 km/h 93% 0 mm 0 W/m2
21:19 11.1 °C 10 °C 999.9 hPa SSW 4.5 km/h 16.1 km/h 93% 0 mm 0 W/m2
21:24 11.1 °C 10 °C 999.9 hPa SSW 5.5 km/h 14.5 km/h 93% 0 mm 0 W/m2
21:29 11.1 °C 10 °C 999.9 hPa SW 4.5 km/h 14.5 km/h 93% 0 mm 0 W/m2
21:34 11.1 °C 10 °C 999.9 hPa SW 7.7 km/h 12.9 km/h 93% 0 mm 0 W/m2
21:39 11.1 °C 9.8 °C 999.9 hPa SW 5.3 km/h 12.9 km/h 92.2% 0 mm 0 W/m2
21:44 11.1 °C 9.8 °C 999.9 hPa SSW 4 km/h 8 km/h 92% 0 mm 0 W/m2
21:49 11.2 °C 9.8 °C 999.9 hPa SSW 3.5 km/h 8 km/h 92% 0 mm 0 W/m2
21:54 11.1 °C 9.8 °C 999.9 hPa SW 6.8 km/h 14.5 km/h 92% 0 mm 0 W/m2
21:59 11.1 °C 9.8 °C 999.9 hPa SW 6.3 km/h 14.5 km/h 92% 0 mm 0 W/m2
22:04 11.1 °C 9.8 °C 999.9 hPa SW 4.7 km/h 11.3 km/h 92% 0 mm 0 W/m2
22:09 11.1 °C 9.8 °C 999.9 hPa SW 6 km/h 11.3 km/h 92% 0 mm 0 W/m2
22:14 10.9 °C 9.7 °C 999.9 hPa SW 2.1 km/h 6.4 km/h 92% 0 mm 0 W/m2
22:19 10.9 °C 9.7 °C 999.9 hPa SW 5.3 km/h 11.3 km/h 92% 0 mm 0 W/m2
22:23 10.9 °C 9.7 °C 999.5 hPa SW 0.8 km/h 4.8 km/h 92% 0 mm 0 W/m2
22:29 10.8 °C 9.6 °C 999.5 hPa SW 3.2 km/h 8 km/h 92% 0 mm 0 W/m2
22:34 10.8 °C 9.6 °C 999.5 hPa SSW 3.9 km/h 9.7 km/h 92% 0 mm 0 W/m2
22:39 10.7 °C 9.5 °C 999.5 hPa SW 3.4 km/h 12.9 km/h 92.2% 0 mm 0 W/m2
22:44 10.7 °C 9.6 °C 999.5 hPa SSW 3.9 km/h 9.7 km/h 92.8% 0 mm 0 W/m2
22:49 10.7 °C 9.6 °C 999.5 hPa SSW 1.6 km/h 14.5 km/h 93% 0 mm 0 W/m2
22:54 10.6 °C 9.5 °C 999.5 hPa SSW 4.8 km/h 14.5 km/h 93% 0 mm 0 W/m2
22:59 10.6 °C 9.5 °C 999.5 hPa SSW 2.4 km/h 6.4 km/h 93% 0 mm 0 W/m2
23:04 10.6 °C 9.5 °C 999.5 hPa SSW 3.4 km/h 14.5 km/h 93% 0 mm 0 W/m2
23:09 10.6 °C 9.5 °C 999.5 hPa SW 8 km/h 14.5 km/h 92.8% 0 mm 0 W/m2
23:14 10.6 °C 9.4 °C 999.5 hPa SW 6.3 km/h 12.9 km/h 92% 0 mm 0 W/m2
23:19 10.6 °C 9.4 °C 999.5 hPa SW 5.3 km/h 12.9 km/h 92% 0 mm 0 W/m2
23:24 10.6 °C 9.4 °C 999.5 hPa WSW 4.2 km/h 16.1 km/h 92% 0 mm 0 W/m2
23:29 10.6 °C 9.3 °C 999.5 hPa WSW 4.8 km/h 11.3 km/h 92% 0 mm 0 W/m2
23:34 10.5 °C 9.3 °C 999.5 hPa SW 3.7 km/h 11.3 km/h 92% 0 mm 0 W/m2
23:39 10.4 °C 9.1 °C 999.5 hPa SW 8.7 km/h 16.1 km/h 91.4% 0 mm 0 W/m2
23:44 10.4 °C 9 °C 999.5 hPa SW 7.1 km/h 16.1 km/h 91% 0 mm 0 W/m2
23:49 10.4 °C 9 °C 999.9 hPa WSW 4.7 km/h 11.3 km/h 91% 0 mm 0 W/m2
23:54 10.3 °C 8.9 °C 999.5 hPa WSW 2.9 km/h 9.7 km/h 91% 0 mm 0 W/m2
23:59 10.3 °C 8.9 °C 999.5 hPa WSW 2.9 km/h 12.9 km/h 91% 0 mm 0 W/m2
Bath Spa Weather
Compliments of Weather Underground - 2 mb